Nearby METAR Reports

 

KBMG - Bloomington, Indiana, USA
Distance from station: SSE 11mi, 18km
Updated: Fri, 26-Feb-2021 12:53pm EST
Mostly cloudy
Mostly cloudy
 Wind from ESE
Wind: ESE 13 mph , 20 km/h
Temperature: 45°F , 7°C
Wind Chill: 39°F , 4°C
Dew Point: 27°F , -3°C
Humidity: 49%
Barometer: 30.13 inHg , 1020.3 hPa
Clouds: Mostly cloudy
Visibility: 10 miles , 16 km
Cloud details: Mostly cloudy 9000 ft
Mostly cloudy 12000 ft
2021/02/26 17:53 KBMG 261753Z 11011KT 10SM BKN090 BKN120 07/M03 A3013 RMK AO2 SLP205 T00671033 10067 21006 58030
KGPC - Greencastle, Indiana, USA
Distance from station: NNW 24mi, 39km
Updated: Fri, 26-Feb-2021 1:15pm EST
Clear
Clear
 Wind from ESE
Wind: ESE 16 mph , 26 km/h
Temperature: 43°F , 6°C
Wind Chill: 35°F , 2°C
Dew Point: 32°F , 0°C
Humidity: 66%
Barometer: 30.12 inHg , 1020 hPa
Clouds: Clear
Visibility: 10 miles , 16 km
2021/02/26 18:15 KGPC 261815Z AUTO 12014KT 10SM CLR 06/00 A3012 RMK AO2 T00621004
 
KHUF - Terre Haute, Indiana, USA
Distance from station: WNW 34mi, 54km
Updated: Fri, 26-Feb-2021 12:53pm EST
Clear
Clear
 Wind from SE
Wind: SE 14 mph , 22 km/h
Temperature: 46°F , 8°C
Wind Chill: 40°F , 4°C
Dew Point: 28°F , -2°C
Humidity: 50%
Barometer: 30.12 inHg , 1020 hPa
Clouds: Clear
Visibility: 10 miles , 16 km
2021/02/26 17:53 KHUF 261753Z 13012KT 10SM CLR 08/M02 A3012 RMK AO2 SLP202 T00831022 10083 21017 58038
KIND - Indianapolis, Indiana, USA
Distance from station: NE 36mi, 58km
Updated: Fri, 26-Feb-2021 12:54pm EST
Few Clouds
Few Clouds
 Wind from E
Wind: E 18 mph , 30 km/h
Temperature: 43°F , 6°C
Wind Chill: 35°F , 2°C
Dew Point: 27°F , -3°C
Humidity: 53%
Barometer: 30.14 inHg , 1020.7 hPa
Clouds: Few Clouds
Visibility: 10 miles , 16 km
Cloud details: Few Clouds 12000 ft
Few Clouds 22000 ft
2021/02/26 17:54 KIND 261754Z 10016KT 10SM FEW120 FEW220 06/M03 A3014 RMK AO2 SLP212 T00611033 10067 21017 58035
 
KHFY - Indianapolis, Indiana, USA
Distance from station: NE 40mi, 65km
Updated: Fri, 26-Feb-2021 1:35pm EST
Clear
Clear
 Wind from ESE
Wind: ESE 10 mph , 17 km/h, Gust: 18 mph , 30 km/h
Temperature: 41°F , 5°C
Wind Chill: 35°F , 2°C
Dew Point: 28°F , -2°C
Humidity: 61%
Barometer: 30.15 inHg , 1021 hPa
Clouds: Clear
Visibility: 10 miles , 16 km
2021/02/26 18:35 KHFY 261835Z AUTO 11009G16KT 10SM CLR 05/M02 A3015 RMK AO2 T00531019
KBAK - Columbus/Balkala, Indiana, USA
Distance from station: E 43mi, 69km
Updated: Fri, 26-Feb-2021 12:45pm EST
Partly cloudy
Partly cloudy
 Wind from E
Wind: E 10 mph , 17 km/h
Temperature: 41°F , 5°C
Wind Chill: 35°F , 2°C
Dew Point: 25°F , -4°C
Humidity: 53%
Barometer: 30.19 inHg , 1022.4 hPa
Clouds: Partly cloudy
Visibility: 10 miles , 16 km
Cloud details: Partly cloudy 12000 ft
2021/02/26 17:45 KBAK 261745Z 09009KT 10SM SCT120 05/M04 A3019
 
KEYE - Indianapolis, Indiana, USA
Distance from station: NNE 43mi, 69km
Updated: Fri, 26-Feb-2021 12:53pm EST
Clear
Clear
 Wind from SE
Wind: SE 15 mph , 24 km/h, Gust: 22 mph , 35 km/h
Temperature: 43°F , 6°C
Wind Chill: 36°F , 2°C
Dew Point: 27°F , -3°C
Humidity: 53%
Barometer: 30.14 inHg , 1020.7 hPa
Clouds: Clear
Visibility: 10 miles , 16 km
2021/02/26 17:53 KEYE 261753Z AUTO 13013G19KT 10SM CLR 06/M03 A3014 RMK AO2 SLP212 T00611033 10061 21022 58034
KDCY - Daviess County, Indiana, USA
Distance from station: SSW 47mi, 76km
Updated: Fri, 26-Feb-2021 1:15pm EST
Overcast
Overcast
 Wind from ESE
Wind: ESE 16 mph , 26 km/h, Gust: 20 mph , 31 km/h
Temperature: 45°F , 7°C
Wind Chill: 38°F , 3°C
Dew Point: 30°F , -1°C
Humidity: 57%
Barometer: 30.10 inHg , 1019.3 hPa
Clouds: Overcast
Visibility: 10 miles , 16 km
Cloud details: Overcast 9000 ft
2021/02/26 18:15 KDCY 261815Z AUTO 11014G17KT 10SM OVC090 07/M01 A3010 RMK AO2 T00701013
 
KCFJ - Crawfordsville, Indiana, USA
Distance from station: NNW 49mi, 78km
Updated: Fri, 26-Feb-2021 1:15pm EST
Clear
Clear
 Wind from ESE
Wind: ESE 13 mph , 20 km/h
Temperature: 41°F , 5°C
Wind Chill: 34°F , 1°C
Dew Point: 30°F , -1°C
Humidity: 66%
Barometer: 30.11 inHg , 1019.6 hPa
Clouds: Clear
Visibility: 10 miles , 16 km
2021/02/26 18:15 KCFJ 261815Z AUTO 11011KT 10SM CLR 05/M01 A3011 RMK AO2 T00511007 TSNO